Terminal Aerodrome Forecast
Issued by NWS

Home | Current Version | Previous Version | Text Only | Print | Product List | Glossary Off
Versions: 1 2 3 4 5 6 7 8 9 10 11 12 13 14 15 16 17 18 19 20 21 22

000
FTUS43 KBIS 171100
TAFDIK
TAF
KDIK 171136Z 1712/1812 VRB05KT 5SM BR SCT002 BKN120
     FM171500 22012KT P6SM BKN100
      TEMPO 1720/1724 3SM TSRA BKN040CB=

USA.gov is the U.S. government's official web portal to all federal, state and local government web resources and services.